Time;durP1;ratioP1;P1;durP2;ratioP2;P2;SDS_P1;SDS_P2;PMS_P1;PMS_P2;Temp;Humidity;BMP_temperature;BMP_pressure;BME280_temperature;BME280_humidity;BME280_pressure;Samples;Min_cycle;Max_cycle;Signal;HPM_P1;HPM_P2
2022/05/19 00:00:15;;;;;;;7.57;6.30;;;;;;;21.03;57.28;101238.75;693335;28;1013;-80
2022/05/19 00:01:01;;;;;;;7.70;6.20;;;;;;;21.02;57.35;101231.69;693014;28;1139;-79
2022/05/19 00:01:17;;;;;;;9.88;6.55;;;;;;;21.07;57.29;101236.97;690604;28;1279;-79
2022/05/19 00:01:38;;;;;;;9.45;6.50;;;;;;;21.05;57.34;101234.34;687959;28;1130;-79
2022/05/19 00:02:00;;;;;;;7.80;6.43;;;;;;;21.11;57.30;101236.06;682367;29;1320;-80
2022/05/19 00:02:21;;;;;;;7.90;6.30;;;;;;;21.05;57.28;101234.34;696150;28;1110;-80
2022/05/19 00:02:42;;;;;;;7.40;6.10;;;;;;;21.10;57.42;101231.66;690512;28;1097;-80
2022/05/19 00:03:03;;;;;;;7.15;6.20;;;;;;;21.13;57.32;101238.72;690747;28;1077;-80
2022/05/19 00:03:29;;;;;;;7.43;6.28;;;;;;;21.13;57.29;101236.06;685367;28;842;-79
2022/05/19 00:04:03;;;;;;;9.40;6.40;;;;;;;21.12;57.33;101231.63;687291;28;1574;-80
2022/05/19 00:04:24;;;;;;;10.68;6.68;;;;;;;21.08;57.39;101225.47;687582;28;1424;-79
2022/05/19 00:04:45;;;;;;;8.60;6.60;;;;;;;21.04;57.26;101224.63;687875;28;1402;-79
2022/05/19 00:05:14;;;;;;;8.50;6.60;;;;;;;21.12;57.20;101234.28;685191;28;1300;-80
2022/05/19 00:05:35;;;;;;;7.10;6.30;;;;;;;21.00;57.07;101225.53;687905;28;914;-79
2022/05/19 00:05:58;;;;;;;7.20;6.10;;;;;;;21.07;57.24;101231.66;690683;28;1131;-79
2022/05/19 00:06:18;;;;;;;7.50;6.23;;;;;;;21.04;57.33;101235.25;688067;28;1097;-80
2022/05/19 00:06:39;;;;;;;9.25;6.32;;;;;;;21.01;57.25;101235.25;689952;28;1206;-80
2022/05/19 00:07:00;;;;;;;9.50;6.30;;;;;;;20.97;57.48;101228.22;690063;28;1296;-80
2022/05/19 00:07:21;;;;;;;10.50;6.32;;;;;;;20.93;57.38;101231.78;690636;28;1159;-79
2022/05/19 00:07:41;;;;;;;10.20;6.33;;;;;;;20.93;57.55;101234.44;693378;28;1170;-79
2022/05/19 00:08:02;;;;;;;12.18;6.63;;;;;;;20.92;57.50;101233.56;693301;28;1224;-80
2022/05/19 00:08:24;;;;;;;9.48;6.50;;;;;;;20.87;57.72;101226.53;690728;28;1356;-81
2022/05/19 00:08:45;;;;;;;9.60;6.43;;;;;;;20.86;57.90;101224.75;687830;28;1357;-79
2022/05/19 00:09:05;;;;;;;7.22;6.18;;;;;;;20.88;57.80;101233.59;687946;28;1011;-80
2022/05/19 00:09:26;;;;;;;7.43;6.28;;;;;;;20.84;57.66;101222.13;690399;28;1115;-79
2022/05/19 00:09:47;;;;;;;7.82;6.30;;;;;;;20.85;57.94;101231.88;690337;28;1206;-80
2022/05/19 00:10:08;;;;;;;9.63;6.93;;;;;;;20.81;57.89;101225.69;690115;28;1114;-79
2022/05/19 00:10:28;;;;;;;9.32;7.20;;;;;;;20.80;57.85;101226.59;690653;28;1296;-79
2022/05/19 00:10:55;;;;;;;9.23;7.15;;;;;;;20.84;58.06;101235.38;690649;28;1117;-81
2022/05/19 00:11:20;;;;;;;7.47;6.50;;;;;;;20.81;58.06;101227.47;690527;28;1277;-80
2022/05/19 00:11:43;;;;;;;7.15;6.45;;;;;;;20.84;58.17;101231.88;693374;28;1089;-79
2022/05/19 00:12:08;;;;;;;7.90;6.82;;;;;;;20.85;58.14;101236.28;687447;28;1277;-80
2022/05/19 00:12:28;;;;;;;9.52;6.88;;;;;;;20.79;58.17;101227.47;687787;28;1902;-79
2022/05/19 00:12:49;;;;;;;9.38;6.50;;;;;;;20.82;58.17;101223.91;687949;28;1141;-79
2022/05/19 00:13:10;;;;;;;18.02;6.30;;;;;;;20.78;58.41;101233.66;687938;28;1130;-80
2022/05/19 00:13:32;;;;;;;18.03;6.50;;;;;;;20.79;58.17;101235.41;693349;28;1149;-79
2022/05/19 00:13:52;;;;;;;17.88;6.50;;;;;;;20.74;58.24;101225.75;693346;28;1216;-80
2022/05/19 00:14:15;;;;;;;8.32;6.15;;;;;;;20.73;58.22;101229.28;696051;28;1274;-80
2022/05/19 00:14:45;;;;;;;8.20;6.00;;;;;;;20.76;58.30;101232.81;690734;28;1306;-80
2022/05/19 00:15:06;;;;;;;8.00;6.10;;;;;;;20.76;58.22;101235.44;682603;29;1014;-80
2022/05/19 00:15:27;;;;;;;7.82;6.50;;;;;;;20.76;58.37;101231.91;690639;28;1252;-80
2022/05/19 00:15:49;;;;;;;8.05;6.43;;;;;;;20.71;58.36;101216.03;687844;28;1037;-79
2022/05/19 00:16:10;;;;;;;8.63;6.43;;;;;;;20.73;58.40;101224.88;693405;28;1021;-80
2022/05/19 00:16:32;;;;;;;8.60;6.60;;;;;;;20.75;58.47;101223.09;693326;28;1273;-79
2022/05/19 00:16:56;;;;;;;8.15;6.70;;;;;;;20.69;58.57;101210.72;690481;28;1137;-80
2022/05/19 00:17:17;;;;;;;8.80;6.85;;;;;;;20.75;58.53;101217.78;690512;28;1387;-80
2022/05/19 00:17:39;;;;;;;8.88;6.70;;;;;;;20.80;58.46;101226.59;690674;28;1232;-80
2022/05/19 00:17:59;;;;;;;9.85;6.70;;;;;;;20.76;58.33;101216.88;690461;28;1368;-79
2022/05/19 00:18:20;;;;;;;8.50;6.20;;;;;;;20.81;58.27;101225.69;690604;28;1101;-80
2022/05/19 00:18:41;;;;;;;8.23;5.97;;;;;;;20.76;58.25;101219.53;685019;28;1207;-80
2022/05/19 00:19:02;;;;;;;7.88;6.28;;;;;;;20.75;58.18;101220.44;687599;28;1312;-80
2022/05/19 00:19:22;;;;;;;8.27;6.50;;;;;;;20.76;58.32;101219.53;685248;28;1214;-80
2022/05/19 00:19:43;;;;;;;8.07;6.67;;;;;;;20.75;58.07;101223.09;689856;28;934;-79
2022/05/19 00:20:04;;;;;;;7.32;6.63;;;;;;;20.72;58.24;101217.78;687764;28;1083;-80
2022/05/19 00:20:25;;;;;;;7.40;6.70;;;;;;;20.78;58.03;101223.06;693355;28;1199;-79
2022/05/19 00:20:46;;;;;;;7.43;6.63;;;;;;;20.72;58.28;101222.22;689829;28;1138;-80
2022/05/19 00:21:07;;;;;;;8.82;6.60;;;;;;;20.72;58.39;101220.44;693141;28;1672;-80
2022/05/19 00:21:28;;;;;;;9.38;6.57;;;;;;;20.66;58.28;101216.03;690674;28;1182;-79
2022/05/19 00:21:49;;;;;;;10.70;6.90;;;;;;;20.71;58.32;101226.63;690497;28;1256;-79
2022/05/19 00:22:11;;;;;;;9.13;6.83;;;;;;;20.71;58.37;101231.94;690543;28;1050;-80
2022/05/19 00:22:32;;;;;;;8.43;6.60;;;;;;;20.60;58.39;101218.72;690735;28;835;-79
2022/05/19 00:22:54;;;;;;;9.38;6.55;;;;;;;20.59;58.41;101210.81;687932;28;1101;-80
2022/05/19 00:23:15;;;;;;;9.00;6.40;;;;;;;20.67;58.50;101230.19;693039;28;1383;-80
2022/05/19 00:23:36;;;;;;;9.45;6.63;;;;;;;20.58;58.51;101212.56;687758;28;1482;-80
2022/05/19 00:23:57;;;;;;;7.68;6.88;;;;;;;20.64;58.49;101230.19;682543;28;1102;-80
2022/05/19 00:24:18;;;;;;;7.50;6.70;;;;;;;20.58;58.54;101219.66;687854;28;1109;-80
2022/05/19 00:24:39;;;;;;;7.40;6.55;;;;;;;20.62;58.42;101227.56;690648;28;1179;-81
2022/05/19 00:24:59;;;;;;;6.80;6.10;;;;;;;20.53;58.40;101217.91;696050;28;1196;-79
2022/05/19 00:25:21;;;;;;;7.03;6.20;;;;;;;20.61;58.54;101231.13;690577;28;1231;-79
2022/05/19 00:25:42;;;;;;;7.68;6.65;;;;;;;20.57;58.74;101226.72;690147;28;1244;-79
2022/05/19 00:26:03;;;;;;;8.73;7.10;;;;;;;20.59;58.73;101232.00;687884;28;933;-80
2022/05/19 00:26:24;;;;;;;9.40;6.82;;;;;;;20.50;58.73;101212.63;690618;28;1279;-79
2022/05/19 00:26:44;;;;;;;8.60;6.57;;;;;;;20.51;58.80;101222.34;687863;28;1057;-79
2022/05/19 00:27:05;;;;;;;7.80;6.40;;;;;;;20.52;58.87;101224.09;687868;28;1124;-80
2022/05/19 00:27:25;;;;;;;7.22;6.53;;;;;;;20.56;58.98;101230.25;687146;28;1216;-80
2022/05/19 00:27:47;;;;;;;7.20;6.50;;;;;;;20.58;59.07;101231.13;690126;28;1144;-79
2022/05/19 00:28:08;;;;;;;8.77;6.70;;;;;;;20.58;58.95;101230.25;693289;28;1121;-79
2022/05/19 00:28:29;;;;;;;9.20;6.65;;;;;;;20.60;59.04;101231.97;682443;28;1222;-79
2022/05/19 00:28:50;;;;;;;9.02;6.55;;;;;;;20.57;59.00;101223.19;687141;28;1296;-79
2022/05/19 00:29:10;;;;;;;7.60;6.47;;;;;;;20.59;58.94;101229.34;690543;28;1377;-80
2022/05/19 00:29:31;;;;;;;7.30;6.20;;;;;;;20.61;59.00;101227.56;687718;28;1206;-80
2022/05/19 00:29:51;;;;;;;9.40;6.45;;;;;;;20.66;59.04;101231.06;682475;28;931;-79
2022/05/19 00:30:15;;;;;;;9.43;6.40;;;;;;;20.65;59.12;101234.63;684906;28;1144;-80
2022/05/19 00:30:37;;;;;;;9.57;6.60;;;;;;;20.60;58.98;101225.81;686675;28;1214;-80
2022/05/19 00:30:58;;;;;;;9.15;6.40;;;;;;;20.63;58.84;101233.72;682508;28;1251;-80
2022/05/19 00:31:18;;;;;;;9.15;6.38;;;;;;;20.58;59.02;101223.16;687808;28;1132;-79
2022/05/19 00:31:39;;;;;;;7.57;5.90;;;;;;;20.56;59.00;101222.31;688015;28;842;-80
2022/05/19 00:32:00;;;;;;;7.28;6.10;;;;;;;20.62;59.12;101235.53;690453;28;1235;-79
2022/05/19 00:32:21;;;;;;;6.63;5.93;;;;;;;20.59;59.05;101227.56;685128;28;1121;-79
2022/05/19 00:32:42;;;;;;;7.40;6.07;;;;;;;20.58;58.87;101219.66;684963;28;1931;-79
2022/05/19 00:33:03;;;;;;;7.23;5.90;;;;;;;20.57;58.76;101223.19;682417;28;1139;-80
2022/05/19 00:33:24;;;;;;;7.20;5.82;;;;;;;20.52;59.03;101221.44;690617;28;1161;-79
2022/05/19 00:33:44;;;;;;;6.80;6.10;;;;;;;20.54;59.02;101224.94;690564;28;1373;-79
2022/05/19 00:34:05;;;;;;;7.03;6.33;;;;;;;20.55;58.89;101226.72;687878;28;1199;-80
2022/05/19 00:34:26;;;;;;;7.50;6.70;;;;;;;20.54;58.89;101230.25;687979;28;894;-79
2022/05/19 00:34:47;;;;;;;6.90;6.20;;;;;;;20.46;59.07;101212.66;687929;28;1189;-80
2022/05/19 00:35:08;;;;;;;6.60;5.90;;;;;;;20.57;59.02;101233.81;692744;28;1248;-80
2022/05/19 00:35:29;;;;;;;6.45;5.82;;;;;;;20.47;59.05;101211.75;687922;28;1264;-80
2022/05/19 00:35:49;;;;;;;6.93;6.22;;;;;;;20.55;59.09;101226.72;685161;28;1037;-80
2022/05/19 00:36:14;;;;;;;7.40;6.60;;;;;;;20.54;58.97;101230.25;690540;28;1243;-80
2022/05/19 00:36:35;;;;;;;9.10;6.90;;;;;;;20.51;58.90;101222.34;690102;28;1385;-79
2022/05/19 00:36:58;;;;;;;9.57;7.05;;;;;;;20.48;58.99;101224.97;686896;28;1246;-79
2022/05/19 00:37:18;;;;;;;10.18;7.05;;;;;;;20.49;59.19;101221.47;687112;28;1108;-80
2022/05/19 00:37:39;;;;;;;8.10;6.70;;;;;;;20.50;59.26;101219.69;696004;28;1314;-80
2022/05/19 00:37:59;;;;;;;7.90;6.70;;;;;;;20.50;58.87;101223.22;687457;28;1295;-81
2022/05/19 00:38:20;;;;;;;7.72;6.93;;;;;;;20.52;58.90;101226.75;687592;28;1451;-79
2022/05/19 00:38:41;;;;;;;10.70;6.80;;;;;;;20.53;58.88;101233.81;693220;28;1075;-79
2022/05/19 00:39:02;;;;;;;11.10;6.63;;;;;;;20.53;58.82;101227.63;695953;28;1260;-80
2022/05/19 00:39:25;;;;;;;10.32;6.25;;;;;;;20.52;58.97;101229.38;690538;28;776;-79
2022/05/19 00:39:46;;;;;;;7.18;5.85;;;;;;;20.48;58.84;101229.41;687421;28;989;-79
2022/05/19 00:40:08;;;;;;;8.35;6.07;;;;;;;20.46;58.88;101221.47;687933;28;1115;-80
2022/05/19 00:40:29;;;;;;;8.23;5.95;;;;;;;20.46;58.89;101228.56;696109;28;1356;-80
2022/05/19 00:40:53;;;;;;;7.90;6.28;;;;;;;20.51;58.97;101234.69;693347;28;992;-80
2022/05/19 00:41:15;;;;;;;7.28;6.32;;;;;;;20.45;58.98;101224.13;687723;28;1289;-79
2022/05/19 00:41:44;;;;;;;8.90;6.50;;;;;;;20.44;58.91;101228.56;687560;28;1314;-80
2022/05/19 00:42:52;;;;;;;9.75;6.38;;;;;;;20.45;59.06;101227.66;690483;28;989;-80
2022/05/19 00:43:13;;;;;;;9.40;6.50;;;;;;;20.46;59.06;101228.56;687944;28;974;-80
2022/05/19 00:43:40;;;;;;;8.30;6.40;;;;;;;20.40;59.10;101224.16;687863;28;1070;-80
2022/05/19 00:44:04;;;;;;;7.85;6.65;;;;;;;20.46;59.18;101225.91;685110;28;1299;-80
2022/05/19 00:44:25;;;;;;;8.20;6.30;;;;;;;20.39;59.42;101215.34;685166;28;1153;-80
2022/05/19 00:44:45;;;;;;;9.63;6.13;;;;;;;20.40;59.20;101235.66;687835;28;1229;-79
2022/05/19 00:45:08;;;;;;;10.82;6.00;;;;;;;20.44;59.06;101228.56;685131;28;1334;-79
2022/05/19 00:45:39;;;;;;;9.95;6.30;;;;;;;20.41;59.09;101228.59;693315;28;1192;-79
2022/05/19 00:46:21;;;;;;;7.50;6.50;;;;;;;20.43;59.25;101237.41;687723;28;1267;-80
2022/05/19 00:46:51;;;;;;;7.25;6.50;;;;;;;20.43;59.03;101226.81;690492;28;977;-79
2022/05/19 00:47:19;;;;;;;8.05;6.40;;;;;;;20.36;59.19;101219.78;682524;29;1233;-79
2022/05/19 00:48:00;;;;;;;9.15;6.78;;;;;;;20.36;59.17;101215.34;687874;28;1223;-79
2022/05/19 00:48:30;;;;;;;8.55;6.40;;;;;;;20.35;59.22;101215.38;695981;28;1334;-79
2022/05/19 00:48:57;;;;;;;7.47;6.15;;;;;;;20.37;59.13;101237.44;693252;28;968;-81
2022/05/19 00:49:27;;;;;;;8.52;6.72;;;;;;;20.31;59.28;101221.56;692495;28;1279;-79
2022/05/19 00:49:49;;;;;;;9.70;6.90;;;;;;;20.28;59.26;101217.16;692687;28;1384;-80
2022/05/19 00:50:21;;;;;;;8.38;6.28;;;;;;;20.28;59.41;101218.03;690556;28;1565;-80
2022/05/19 00:50:49;;;;;;;7.30;5.90;;;;;;;20.24;59.32;101224.22;689689;28;1355;-80
2022/05/19 00:51:11;;;;;;;8.55;6.45;;;;;;;20.24;59.59;101224.22;687764;28;1405;-79
2022/05/19 00:51:45;;;;;;;7.78;6.20;;;;;;;20.19;59.67;101223.41;690481;28;1528;-79
2022/05/19 00:52:15;;;;;;;7.32;6.50;;;;;;;20.21;59.61;101232.22;685321;28;1342;-79
2022/05/19 00:52:41;;;;;;;7.97;6.68;;;;;;;20.18;59.68;101218.09;685080;28;1967;-80
2022/05/19 00:53:07;;;;;;;9.27;6.30;;;;;;;20.17;59.63;101219.88;685029;28;1340;-79
2022/05/19 00:53:35;;;;;;;10.40;6.40;;;;;;;20.09;59.64;101211.06;682478;29;1323;-79
2022/05/19 00:53:58;;;;;;;9.10;6.25;;;;;;;20.12;59.71;101219.88;687806;28;958;-80
2022/05/19 00:54:28;;;;;;;9.43;6.25;;;;;;;20.10;59.87;101216.38;693245;28;1594;-79
2022/05/19 00:54:55;;;;;;;8.65;6.50;;;;;;;20.05;59.91;101218.19;690458;28;1379;-79
2022/05/19 00:55:39;;;;;;;8.95;6.65;;;;;;;20.03;60.02;101214.63;692775;28;1394;-80
2022/05/19 00:56:04;;;;;;;9.48;6.60;;;;;;;20.07;59.95;101223.44;687785;28;1065;-79
2022/05/19 00:56:32;;;;;;;12.13;6.28;;;;;;;19.98;60.11;101213.78;693086;28;2024;-80
2022/05/19 00:57:01;;;;;;;10.63;6.53;;;;;;;20.04;60.03;101220.81;690418;28;1134;-79
2022/05/19 00:57:25;;;;;;;9.80;6.78;;;;;;;19.98;60.12;101213.78;693105;28;1245;-80
2022/05/19 00:58:01;;;;;;;8.20;6.50;;;;;;;19.98;60.11;101208.50;690662;28;850;-80
2022/05/19 00:58:28;;;;;;;8.00;6.20;;;;;;;20.03;60.17;101213.75;690306;28;1281;-79
2022/05/19 00:59:05;;;;;;;7.60;6.45;;;;;;;20.00;60.36;101209.34;692572;28;1428;-79
2022/05/19 00:59:52;;;;;;;8.38;6.65;;;;;;;20.02;60.20;101214.66;687510;28;1233;-80
2022/05/19 01:00:17;;;;;;;7.75;6.45;;;;;;;20.03;60.09;101213.75;682381;28;1333;-80
2022/05/19 01:00:38;;;;;;;7.07;6.22;;;;;;;20.04;60.08;101218.16;693337;28;1125;-79
2022/05/19 01:00:58;;;;;;;7.70;6.13;;;;;;;19.97;60.31;101202.31;698547;28;1317;-80
2022/05/19 01:01:22;;;;;;;9.60;6.10;;;;;;;19.98;60.07;101209.34;693233;28;1292;-80
2022/05/19 01:01:44;;;;;;;9.20;6.10;;;;;;;19.98;59.97;101205.84;690301;28;1191;-80
2022/05/19 01:02:09;;;;;;;8.30;6.03;;;;;;;19.95;60.00;101201.44;691105;28;1384;-80
2022/05/19 01:02:34;;;;;;;6.93;6.00;;;;;;;19.99;59.95;101205.81;690084;28;1149;-80
2022/05/19 01:02:57;;;;;;;7.57;6.22;;;;;;;20.03;60.03;101219.94;690527;28;1002;-80
2022/05/19 01:03:19;;;;;;;8.02;6.13;;;;;;;19.93;60.20;101200.56;687778;28;1207;-80
2022/05/19 01:03:49;;;;;;;8.40;6.03;;;;;;;19.96;59.79;101200.53;693337;28;783;-80
2022/05/19 01:04:35;;;;;;;8.65;6.20;;;;;;;19.97;59.95;101210.25;687771;28;1116;-79
2022/05/19 01:05:11;;;;;;;8.60;6.60;;;;;;;19.98;59.98;101214.66;688269;28;1412;-79
2022/05/19 01:05:46;;;;;;;7.95;6.60;;;;;;;19.98;59.88;101217.31;690532;28;1430;-80
2022/05/19 01:06:17;;;;;;;7.05;6.35;;;;;;;19.90;60.11;101205.84;690441;28;1226;-80
2022/05/19 01:06:39;;;;;;;8.25;6.35;;;;;;;19.94;60.18;101209.38;687750;28;870;-79
2022/05/19 01:07:05;;;;;;;7.97;5.90;;;;;;;19.93;60.02;101202.31;690203;28;1332;-79
2022/05/19 01:07:50;;;;;;;6.40;5.70;;;;;;;19.88;60.11;101197.03;693013;28;2107;-79
2022/05/19 01:08:42;;;;;;;7.20;6.30;;;;;;;19.83;60.26;101199.69;685153;28;1228;-80
2022/05/19 01:09:09;;;;;;;9.93;6.93;;;;;;;19.89;60.28;101209.41;685118;28;1385;-80
2022/05/19 01:09:34;;;;;;;10.93;6.65;;;;;;;19.86;60.25;101204.97;690128;28;783;-83
2022/05/19 01:09:58;;;;;;;12.23;6.25;;;;;;;19.87;60.31;101205.84;692981;28;863;-79
2022/05/19 01:10:19;;;;;;;12.35;6.50;;;;;;;19.84;60.30;101197.91;687699;28;1286;-79
2022/05/19 01:10:41;;;;;;;9.70;6.75;;;;;;;19.78;60.21;101188.22;687791;28;1399;-79
2022/05/19 01:11:05;;;;;;;9.20;6.55;;;;;;;19.79;60.29;101199.69;692740;28;1125;-79
2022/05/19 01:11:25;;;;;;;7.90;6.60;;;;;;;19.84;60.20;101200.53;685254;28;816;-80
2022/05/19 01:11:52;;;;;;;8.10;6.70;;;;;;;19.80;60.36;101198.81;687719;28;1144;-80
2022/05/19 01:12:12;;;;;;;9.82;6.65;;;;;;;19.83;60.30;101199.69;687737;28;936;-79
2022/05/19 01:12:34;;;;;;;9.30;6.33;;;;;;;19.83;60.35;101199.69;693151;28;1969;-79
2022/05/19 01:12:55;;;;;;;11.48;6.40;;;;;;;19.84;60.26;101203.19;685200;28;966;-79
2022/05/19 01:13:15;;;;;;;9.00;6.07;;;;;;;19.83;60.27;101212.91;692708;28;1249;-79
2022/05/19 01:13:37;;;;;;;11.07;6.00;;;;;;;19.78;60.08;101198.81;692861;28;1192;-80
2022/05/19 01:13:58;;;;;;;9.55;6.45;;;;;;;19.78;60.49;101196.16;687817;28;1096;-80
2022/05/19 01:14:19;;;;;;;9.07;6.55;;;;;;;19.73;60.37;101192.63;690448;28;1465;-79
2022/05/19 01:14:39;;;;;;;7.20;6.45;;;;;;;19.75;60.26;101190.00;695896;28;1192;-79
2022/05/19 01:15:02;;;;;;;6.90;6.20;;;;;;;19.81;60.31;101205.88;687847;28;1144;-79
2022/05/19 01:15:23;;;;;;;7.20;6.40;;;;;;;19.81;60.41;101203.22;690442;28;1312;-80
2022/05/19 01:15:47;;;;;;;9.20;6.70;;;;;;;19.75;60.11;101195.28;687922;28;1060;-79
2022/05/19 01:16:10;;;;;;;8.88;6.60;;;;;;;19.81;60.26;101203.22;685101;28;1124;-79
2022/05/19 01:16:31;;;;;;;8.70;6.50;;;;;;;19.78;60.28;101208.53;685336;28;1117;-79
2022/05/19 01:16:52;;;;;;;7.78;6.15;;;;;;;19.75;60.21;101201.47;690441;28;1032;-79
2022/05/19 01:17:13;;;;;;;7.70;6.10;;;;;;;19.76;60.28;101207.63;695906;28;1136;-79
2022/05/19 01:17:34;;;;;;;7.75;6.32;;;;;;;19.73;60.26;101198.81;693278;28;920;-79
2022/05/19 01:17:55;;;;;;;7.82;6.38;;;;;;;19.73;60.16;101204.13;687728;28;1206;-80
2022/05/19 01:18:19;;;;;;;7.00;5.97;;;;;;;19.76;60.05;101202.34;687033;28;1289;-79
2022/05/19 01:18:41;;;;;;;7.03;5.90;;;;;;;19.68;60.01;101195.31;687826;28;1082;-79
2022/05/19 01:19:09;;;;;;;7.13;6.28;;;;;;;19.71;60.10;101200.59;690440;28;1369;-80
2022/05/19 01:19:37;;;;;;;7.50;6.38;;;;;;;19.71;59.95;101194.41;687293;28;1231;-79
2022/05/19 01:20:20;;;;;;;6.88;6.15;;;;;;;19.77;59.95;101209.41;687641;28;1508;-79
2022/05/19 01:20:42;;;;;;;7.13;6.43;;;;;;;19.76;59.98;101208.53;687699;28;1227;-80
2022/05/19 01:21:07;;;;;;;7.50;6.63;;;;;;;19.73;59.88;101204.13;690513;28;1516;-79
2022/05/19 01:21:43;;;;;;;7.70;6.65;;;;;;;19.68;59.96;101203.25;690082;28;1256;-79
2022/05/19 01:22:27;;;;;;;6.80;6.07;;;;;;;19.75;60.14;101206.78;690168;28;2129;-80
2022/05/19 01:23:02;;;;;;;8.38;6.20;;;;;;;19.72;60.06;101212.97;689629;28;1574;-79
2022/05/19 01:23:41;;;;;;;9.20;6.22;;;;;;;19.71;60.18;101212.94;690473;28;1266;-79
2022/05/19 01:24:16;;;;;;;7.25;6.03;;;;;;;19.71;60.11;101211.19;682522;29;1090;-79
2022/05/19 01:24:49;;;;;;;7.70;6.22;;;;;;;19.68;60.10;101199.72;687689;28;1481;-79
2022/05/19 01:25:26;;;;;;;7.70;6.35;;;;;;;19.70;60.33;101206.78;687834;28;1064;-80
2022/05/19 01:26:18;;;;;;;7.05;6.22;;;;;;;19.71;60.38;101211.19;687807;28;989;-79
2022/05/19 01:26:39;;;;;;;9.38;6.47;;;;;;;19.71;60.35;101205.00;692548;28;1172;-79
2022/05/19 01:27:01;;;;;;;10.30;6.40;;;;;;;19.71;60.50;101210.31;692749;28;1277;-79
2022/05/19 01:27:22;;;;;;;8.23;6.10;;;;;;;19.65;60.46;101200.63;690425;28;1339;-79
2022/05/19 01:27:42;;;;;;;9.30;6.20;;;;;;;19.69;60.49;101207.69;684857;28;1335;-79
2022/05/19 01:28:04;;;;;;;8.00;6.30;;;;;;;19.73;60.34;101211.16;687846;28;1109;-79
2022/05/19 01:28:26;;;;;;;7.63;6.30;;;;;;;19.64;60.36;101198.88;687772;28;1361;-79
2022/05/19 01:28:46;;;;;;;7.22;6.45;;;;;;;19.68;60.28;101203.25;687690;28;1481;-79
2022/05/19 01:29:09;;;;;;;11.20;6.50;;;;;;;19.62;60.19;101183.88;685075;28;1172;-80
2022/05/19 01:29:30;;;;;;;11.15;6.43;;;;;;;19.66;60.36;101196.22;687156;28;1487;-79
2022/05/19 01:29:50;;;;;;;9.27;6.50;;;;;;;19.70;60.39;101193.56;684863;28;1285;-79
2022/05/19 01:30:12;;;;;;;7.90;6.90;;;;;;;19.74;60.33;101207.66;690487;28;1607;-79
2022/05/19 01:30:33;;;;;;;9.45;7.35;;;;;;;19.67;60.50;101198.84;690462;28;795;-79
2022/05/19 01:30:53;;;;;;;8.73;7.05;;;;;;;19.70;60.52;101198.84;690414;28;1396;-79
2022/05/19 01:31:29;;;;;;;9.05;6.93;;;;;;;19.77;60.40;101204.09;687773;28;1272;-79
2022/05/19 01:31:54;;;;;;;9.98;6.90;;;;;;;19.75;60.36;101195.28;692920;28;1215;-79
2022/05/19 01:32:25;;;;;;;10.55;6.90;;;;;;;19.71;60.31;101192.66;690497;28;1258;-80
2022/05/19 01:32:46;;;;;;;9.27;6.70;;;;;;;19.75;60.35;101205.88;684872;28;1901;-79
2022/05/19 01:33:31;;;;;;;9.15;6.80;;;;;;;19.78;60.40;101201.47;682519;28;1370;-79
2022/05/19 01:33:51;;;;;;;9.07;6.63;;;;;;;19.70;60.43;101193.56;692720;28;1222;-79
2022/05/19 01:34:12;;;;;;;10.00;6.77;;;;;;;19.72;60.40;101189.13;693325;28;995;-79
2022/05/19 01:34:34;;;;;;;9.55;6.80;;;;;;;19.74;60.38;101194.44;690489;28;1163;-80
2022/05/19 01:34:56;;;;;;;7.50;6.50;;;;;;;19.74;60.27;101191.78;684705;28;1483;-79
2022/05/19 01:35:17;;;;;;;7.00;6.30;;;;;;;19.73;60.31;101190.88;687766;28;1283;-79
2022/05/19 01:35:38;;;;;;;7.30;6.60;;;;;;;19.76;60.37;101202.34;687807;28;1225;-79
2022/05/19 01:35:58;;;;;;;7.82;6.63;;;;;;;19.71;60.19;101200.59;692666;28;1119;-79
2022/05/19 01:36:19;;;;;;;9.00;6.80;;;;;;;19.76;60.15;101200.59;693225;28;1209;-79
2022/05/19 01:36:40;;;;;;;8.60;6.60;;;;;;;19.73;60.15;101195.28;687915;28;784;-79
2022/05/19 01:37:02;;;;;;;7.60;6.50;;;;;;;19.69;60.15;101185.59;689552;28;1277;-79
2022/05/19 01:37:38;;;;;;;8.80;6.40;;;;;;;19.72;60.21;101194.41;687728;28;906;-79
2022/05/19 01:38:21;;;;;;;9.00;6.50;;;;;;;19.75;60.28;101200.59;687811;28;1106;-79
2022/05/19 01:38:59;;;;;;;7.70;6.32;;;;;;;19.67;60.25;101190.91;683279;28;1149;-79
2022/05/19 01:39:31;;;;;;;8.90;6.47;;;;;;;19.72;60.28;101196.19;692268;28;1164;-79
2022/05/19 01:40:24;;;;;;;9.30;6.35;;;;;;;19.70;60.36;101196.19;689973;28;1280;-79
2022/05/19 01:40:59;;;;;;;9.10;6.80;;;;;;;19.67;60.34;101193.53;688459;28;1319;-80
2022/05/19 01:41:54;;;;;;;7.68;6.82;;;;;;;19.71;60.27;101199.72;687716;28;1388;-79
2022/05/19 01:42:39;;;;;;;7.47;6.20;;;;;;;19.67;60.45;101205.91;690372;28;1296;-79
2022/05/19 01:44:32;;;;;;;8.20;7.00;;;;;;;19.59;60.79;101192.69;687819;28;1075;-79
2022/05/19 01:45:01;;;;;;;7.40;6.40;;;;;;;19.62;60.71;101199.75;690107;28;1146;-80
2022/05/19 01:45:40;;;;;;;7.47;6.40;;;;;;;19.62;60.72;101198.00;688214;28;1068;-79
2022/05/19 01:46:13;;;;;;;8.15;6.60;;;;;;;19.55;60.76;101186.53;691074;28;869;-79
2022/05/19 01:46:37;;;;;;;8.65;6.88;;;;;;;19.58;60.77;101196.22;685608;28;879;-79
2022/05/19 01:47:12;;;;;;;8.98;7.05;;;;;;;19.62;60.78;101194.44;691006;28;1303;-79
2022/05/19 01:47:46;;;;;;;8.38;6.70;;;;;;;19.62;60.81;101200.63;688071;28;1169;-79
2022/05/19 01:48:18;;;;;;;7.75;6.60;;;;;;;19.50;60.77;101179.47;685507;28;1201;-81
2022/05/19 01:49:25;;;;;;;9.70;6.82;;;;;;;19.56;60.81;101192.72;690997;28;945;-79
2022/05/19 01:49:53;;;;;;;8.48;6.80;;;;;;;19.58;60.73;101197.13;687636;28;1314;-79
2022/05/19 01:50:44;;;;;;;9.10;6.70;;;;;;;19.57;60.77;101190.06;685463;28;1355;-80
2022/05/19 01:51:11;;;;;;;10.10;6.60;;;;;;;19.57;60.99;101192.72;693653;28;1170;-79
2022/05/19 01:51:49;;;;;;;10.77;6.93;;;;;;;19.57;61.01;101192.72;690508;28;1459;-80
2022/05/19 01:52:43;;;;;;;9.90;7.50;;;;;;;19.48;60.88;101175.97;688583;28;1046;-79
2022/05/19 01:53:15;;;;;;;7.70;6.80;;;;;;;19.56;60.89;101190.94;683403;28;1236;-80
2022/05/19 01:53:49;;;;;;;7.60;6.63;;;;;;;19.51;60.92;101179.50;691091;28;834;-79
2022/05/19 01:54:36;;;;;;;8.15;6.50;;;;;;;19.53;60.65;101188.31;693689;28;1008;-79
2022/05/19 01:55:06;;;;;;;9.35;6.50;;;;;;;19.56;60.92;101190.06;688107;28;1302;-79
2022/05/19 01:55:54;;;;;;;10.60;7.30;;;;;;;19.56;60.91;101184.78;690350;28;1233;-79
2022/05/19 01:56:31;;;;;;;8.85;7.20;;;;;;;19.47;60.93;101174.22;690514;28;1322;-80
2022/05/19 01:57:02;;;;;;;8.20;6.75;;;;;;;19.49;60.86;101183.03;690827;28;1088;-79
2022/05/19 01:57:26;;;;;;;8.05;7.00;;;;;;;19.51;60.90;101190.06;685585;28;907;-79
2022/05/19 01:57:55;;;;;;;8.60;7.13;;;;;;;19.43;61.04;101178.63;693537;28;1255;-79
2022/05/19 01:58:23;;;;;;;10.23;7.45;;;;;;;19.48;61.08;101191.84;690907;28;1106;-80
2022/05/19 01:59:21;;;;;;;9.77;7.45;;;;;;;19.44;61.01;101186.53;693609;28;1185;-79
2022/05/19 02:00:01;;;;;;;8.57;7.20;;;;;;;19.36;61.22;101176.88;681569;29;2156;-79
2022/05/19 02:00:24;;;;;;;11.27;6.55;;;;;;;19.34;61.07;101179.53;693603;28;1169;-80
2022/05/19 02:00:48;;;;;;;11.75;6.50;;;;;;;19.37;60.89;101184.78;693520;28;1002;-79
2022/05/19 02:01:10;;;;;;;11.30;6.50;;;;;;;19.35;60.90;101178.63;691106;28;981;-79
2022/05/19 02:01:30;;;;;;;7.55;6.30;;;;;;;19.35;61.25;101181.28;688281;28;1366;-79
2022/05/19 02:02:11;;;;;;;7.10;6.28;;;;;;;19.30;60.99;101180.44;688256;28;1017;-79
2022/05/19 02:02:35;;;;;;;8.07;7.20;;;;;;;19.35;61.24;101183.94;682899;29;1522;-79
2022/05/19 02:03:01;;;;;;;9.43;7.30;;;;;;;19.28;61.25;101176.88;688164;28;1361;-79
2022/05/19 02:03:25;;;;;;;9.38;7.03;;;;;;;19.32;61.21;101183.94;687685;28;1363;-80
2022/05/19 02:03:55;;;;;;;8.18;6.80;;;;;;;19.32;61.30;101176.00;688248;28;1005;-80
2022/05/19 02:04:22;;;;;;;7.50;6.70;;;;;;;19.26;61.18;101176.00;687551;28;1152;-79
2022/05/19 02:05:12;;;;;;;7.25;6.47;;;;;;;19.29;61.23;101183.94;683133;28;1101;-79
2022/05/19 02:06:08;;;;;;;10.20;6.20;;;;;;;19.30;61.30;101189.22;685473;28;1279;-79
2022/05/19 02:06:39;;;;;;;10.07;7.65;;;;;;;19.26;61.44;101178.66;687165;28;1259;-78
2022/05/19 02:07:04;;;;;;;7.90;7.07;;;;;;;19.24;61.71;101169.84;690933;28;1085;-79
2022/05/19 02:07:26;;;;;;;7.95;6.80;;;;;;;19.27;61.56;101172.47;690972;28;1323;-79